Baraboo, WI (53913)

11:38 PM CDT on July 29, 2016 (GMT -0500)
Baraboo Wisconsin Dells | | Change Station

Elev 978 ft 43.52 °N, 89.77 °W | Updated 28 minutes ago

Mostly Cloudy
Mostly Cloudy
65 °F
Feels Like 65 °F
N
5
Wind Variable Wind from East

Today
High -- | Low -- °F
--% Chance of Precip.
Yesterday
High -- | Low -- °F
Precip. -- in
Pressure 30.02 in
Visibility 10.0 miles
Clouds Mostly Cloudy 9000 ft
Dew Point 63 °F
Humidity 92%
Rainfall 0.37 in
Snow Depth Not available.
5:45 AM 8:24 PM
Waning Crescent, 16% visible
METAR KDLL 300410Z AUTO 08004KT 10SM BKN090 18/17 A3002 RMK AO2 T01830170
Pressure 30.02 in
Visibility 10.0 miles
Clouds Mostly Cloudy 9000 ft
Dew Point 63 °F
Humidity 92%
Rainfall 0.37 in
Snow Depth Not available.
5:45 AM 8:24 PM
Waning Crescent, 16% visible
METAR KDLL 300410Z AUTO 08004KT 10SM BKN090 18/17 A3002 RMK AO2 T01830170

10-Day Weather Forecast

Almanac

Astronomy

Jul. 29, 2016 Rise Set
Actual Time
Civil Twilight
Nautical Twilight
Astronomical Twilight
Moon
Length of Visible Light
Length of Day
Tomorrow will be .
, % of the Moon is Illuminated

Today's Extremes

State Highs State Lows

Community

WunderPhotos

Upload Photos

1,928,506 photos uploaded!

WunderBlog® & News

Nearby

Air Quality

  Air Quality AQ Index Pollutant
Not available.

Snow Depth

Station Depth Elevation

Earthquake Activity

City Distance Mag. Time & Date
Minimum magnitude displayed is 2.5.

Coastal Water Temperatures

Place Temperature

Stations

Nearby Weather Stations

Station Location Temp. Windchill Dew Point Humidity Wind Precip. Elev Updated Type
                   

Watches & Warnings

There are currently no watches in effect.